Time;durP1;ratioP1;P1;durP2;ratioP2;P2;SDS_P1;SDS_P2;PMS_P1;PMS_P2;Temp;Humidity;BMP_temperature;BMP_pressure;BME280_temperature;BME280_humidity;BME280_pressure;Samples;Min_cycle;Max_cycle;Signal;HPM_P1;HPM_P2
2023/02/20 00:00:52;;;;;;;1.33;1.05;;;16.20;56.30;;;;;;5114904;28;20184;-57
2023/02/20 00:03:18;;;;;;;1.15;1.00;;;16.20;56.40;;;;;;5114538;28;20180;-58
2023/02/20 00:05:43;;;;;;;1.58;1.20;;;16.20;56.40;;;;;;5114633;28;20626;-57
2023/02/20 00:08:11;;;;;;;1.17;1.08;;;16.20;56.40;;;;;;5114183;28;20222;-57
2023/02/20 00:10:37;;;;;;;1.55;1.20;;;16.20;56.30;;;;;;5113675;28;20520;-55
2023/02/20 00:13:03;;;;;;;1.05;0.95;;;16.10;56.30;;;;;;5114735;28;20631;-51
2023/02/20 00:15:28;;;;;;;1.27;1.17;;;16.10;56.30;;;;;;5114656;28;20230;-52
2023/02/20 00:17:54;;;;;;;1.55;1.40;;;16.20;56.50;;;;;;5113513;28;20224;-55
2023/02/20 00:20:21;;;;;;;1.30;1.20;;;16.10;56.40;;;;;;5114826;28;20173;-56
2023/02/20 00:22:47;;;;;;;1.85;1.23;;;16.10;56.40;;;;;;5114501;28;20579;-54
2023/02/20 00:25:14;;;;;;;1.52;1.17;;;16.10;56.40;;;;;;5113792;28;20197;-54
2023/02/20 00:27:41;;;;;;;2.33;1.40;;;16.10;56.40;;;;;;5114449;28;20263;-54
2023/02/20 00:30:09;;;;;;;1.40;1.15;;;16.00;56.30;;;;;;5114210;27;20640;-54
2023/02/20 00:32:34;;;;;;;1.65;1.33;;;16.10;56.30;;;;;;5112054;28;20261;-54
2023/02/20 00:35:00;;;;;;;1.52;1.42;;;16.00;56.20;;;;;;5114272;28;20252;-53
2023/02/20 00:37:25;;;;;;;1.38;1.27;;;16.00;56.10;;;;;;5114147;28;20646;-55
2023/02/20 00:39:51;;;;;;;2.33;1.35;;;16.00;56.20;;;;;;5112854;28;20707;-55
2023/02/20 00:42:17;;;;;;;2.15;1.50;;;16.00;56.20;;;;;;5113946;28;20252;-55
2023/02/20 00:44:42;;;;;;;1.73;1.35;;;16.00;56.10;;;;;;5113734;28;20204;-55
2023/02/20 00:47:08;;;;;;;2.13;1.65;;;16.00;56.20;;;;;;5113409;28;20541;-55
2023/02/20 00:49:33;;;;;;;1.33;1.23;;;16.00;56.10;;;;;;5113557;28;20623;-55
2023/02/20 00:51:59;;;;;;;2.28;1.10;;;16.00;56.10;;;;;;5113911;28;20169;-54
2023/02/20 00:54:24;;;;;;;2.28;1.63;;;16.00;56.20;;;;;;5113012;28;20518;-55
2023/02/20 00:56:50;;;;;;;1.52;1.40;;;16.00;56.10;;;;;;5113719;28;20180;-56
2023/02/20 00:59:15;;;;;;;1.50;1.40;;;16.00;56.20;;;;;;5113939;28;20177;-56
2023/02/20 01:01:41;;;;;;;1.50;1.38;;;16.00;56.00;;;;;;5112937;28;20637;-56
2023/02/20 01:04:06;;;;;;;1.55;1.45;;;16.00;56.10;;;;;;5113861;28;20583;-57
2023/02/20 01:06:32;;;;;;;1.30;1.20;;;15.90;56.00;;;;;;5113251;28;20215;-56
2023/02/20 01:08:57;;;;;;;1.65;1.55;;;15.90;56.00;;;;;;5112822;28;20219;-55
2023/02/20 01:11:23;;;;;;;1.67;1.58;;;15.90;55.90;;;;;;5113531;28;20181;-56
2023/02/20 01:13:48;;;;;;;1.40;1.30;;;15.90;56.00;;;;;;5112430;28;20173;-56
2023/02/20 01:16:14;;;;;;;1.33;1.23;;;15.90;56.00;;;;;;5113148;28;20173;-56
2023/02/20 01:18:39;;;;;;;1.92;1.73;;;15.90;56.00;;;;;;5113292;28;20281;-56
2023/02/20 01:21:05;;;;;;;1.70;1.60;;;15.90;55.80;;;;;;5112520;28;20654;-54
2023/02/20 01:23:30;;;;;;;2.20;1.60;;;15.90;56.00;;;;;;5113117;28;20745;-54
2023/02/20 01:25:56;;;;;;;2.05;1.63;;;15.90;55.80;;;;;;5113097;28;20212;-54
2023/02/20 01:28:21;;;;;;;1.60;1.50;;;15.90;56.00;;;;;;5112684;28;20583;-56
2023/02/20 01:30:47;;;;;;;2.10;1.70;;;15.90;56.10;;;;;;5113059;28;20620;-56
2023/02/20 01:33:13;;;;;;;3.58;1.60;;;15.80;55.90;;;;;;5113260;28;20647;-54
2023/02/20 01:35:38;;;;;;;1.70;1.50;;;15.90;55.90;;;;;;5112209;28;20177;-54
2023/02/20 01:38:05;;;;;;;2.13;1.73;;;15.90;55.90;;;;;;5112930;28;20169;-53
2023/02/20 01:40:31;;;;;;;1.58;1.40;;;15.80;55.60;;;;;;5112996;28;20203;-55
2023/02/20 01:42:56;;;;;;;1.60;1.50;;;15.90;55.90;;;;;;5112541;28;20209;-56
2023/02/20 01:45:22;;;;;;;1.50;1.40;;;15.80;55.70;;;;;;5113138;28;20204;-55
2023/02/20 01:47:49;;;;;;;1.70;1.60;;;15.80;55.90;;;;;;5112905;28;20535;-56
2023/02/20 01:50:15;;;;;;;1.60;1.50;;;15.80;55.80;;;;;;5112427;28;20189;-54
2023/02/20 01:52:41;;;;;;;1.75;1.60;;;15.80;55.80;;;;;;5094838;28;20168;-55
2023/02/20 01:55:14;;;;;;;1.60;1.50;;;15.80;55.70;;;;;;5111922;28;20176;-54
2023/02/20 01:57:41;;;;;;;1.80;1.63;;;15.80;55.80;;;;;;5111002;28;20259;-55
2023/02/20 02:00:08;;;;;;;1.40;1.30;;;15.80;55.80;;;;;;5111674;28;20173;-56
2023/02/20 02:02:35;;;;;;;2.03;1.92;;;15.80;55.80;;;;;;5111663;28;20305;-56
2023/02/20 02:05:00;;;;;;;1.92;1.83;;;15.80;55.80;;;;;;5112094;28;20658;-55
2023/02/20 02:07:26;;;;;;;1.58;1.40;;;15.80;55.70;;;;;;5112737;28;20169;-56
2023/02/20 02:10:16;;;;;;;1.60;1.50;;;15.80;55.80;;;;;;5111215;28;20183;-55
2023/02/20 02:12:41;;;;;;;1.55;1.45;;;15.80;55.90;;;;;;5095498;28;20627;-56
2023/02/20 02:15:15;;;;;;;2.00;1.63;;;15.80;55.80;;;;;;5094596;28;20186;-54
2023/02/20 02:17:49;;;;;;;1.52;1.42;;;15.80;55.80;;;;;;5111370;28;20229;-52
2023/02/20 02:20:53;;;;;;;3.10;1.75;;;15.80;55.70;;;;;;5111344;28;20234;-54
2023/02/20 02:23:37;;;;;;;1.83;1.70;;;15.70;55.60;;;;;;5112828;28;20249;-54
2023/02/20 02:26:19;;;;;;;1.98;1.77;;;15.70;55.70;;;;;;5111609;28;20242;-53
2023/02/20 02:29:08;;;;;;;2.10;1.90;;;15.70;55.70;;;;;;5111464;28;20180;-52
2023/02/20 02:32:12;;;;;;;1.50;1.40;;;15.70;55.50;;;;;;5111222;28;20173;-55
2023/02/20 02:34:50;;;;;;;1.75;1.63;;;15.70;55.60;;;;;;5116653;28;20176;-55
2023/02/20 02:37:57;;;;;;;2.30;1.75;;;15.70;55.70;;;;;;5099704;28;20173;-55
2023/02/20 02:40:42;;;;;;;1.77;1.67;;;15.70;56.20;;;;;;5094640;28;20669;-55
2023/02/20 02:43:26;;;;;;;1.63;1.52;;;15.70;55.60;;;;;;5101022;28;20214;-55
2023/02/20 02:45:57;;;;;;;2.00;1.88;;;15.70;55.70;;;;;;5114400;28;20713;-54
2023/02/20 02:48:28;;;;;;;2.15;1.98;;;15.70;56.20;;;;;;5098527;28;20606;-54
2023/02/20 02:50:56;;;;;;;3.80;2.00;;;15.70;55.60;;;;;;5098056;28;20635;-53
2023/02/20 02:53:21;;;;;;;2.15;1.85;;;15.70;55.50;;;;;;5097319;28;20180;-51
2023/02/20 02:55:47;;;;;;;2.17;1.73;;;15.70;55.60;;;;;;5116140;28;20538;-54
2023/02/20 02:58:12;;;;;;;1.92;1.83;;;15.60;55.70;;;;;;5116240;28;20647;-55
2023/02/20 03:00:58;;;;;;;1.92;1.65;;;15.60;55.60;;;;;;5115107;28;20188;-51
2023/02/20 03:03:32;;;;;;;2.20;2.00;;;15.60;55.60;;;;;;5114453;28;20208;-55
2023/02/20 03:06:02;;;;;;;3.28;2.20;;;15.60;55.60;;;;;;5114717;28;20656;-55
2023/02/20 03:08:32;;;;;;;2.30;1.80;;;15.60;55.50;;;;;;5114042;28;20174;-52
2023/02/20 03:11:19;;;;;;;1.98;1.73;;;15.60;55.70;;;;;;5116199;28;20276;-54
2023/02/20 03:16:39;;;;;;;2.15;2.00;;;15.60;55.50;;;;;;5114439;28;20328;-53
2023/02/20 03:19:05;;;;;;;2.50;2.20;;;15.60;55.50;;;;;;5114517;28;20642;-54
2023/02/20 03:21:30;;;;;;;2.65;2.28;;;15.60;55.50;;;;;;5113790;28;20208;-55
2023/02/20 03:23:57;;;;;;;3.13;2.55;;;15.60;55.60;;;;;;5097148;28;20177;-55
2023/02/20 03:26:27;;;;;;;2.25;2.05;;;15.60;55.40;;;;;;5097414;28;20212;-53
2023/02/20 03:29:01;;;;;;;2.70;2.47;;;15.50;55.50;;;;;;5097000;28;20252;-52
2023/02/20 03:31:41;;;;;;;3.55;2.75;;;15.50;55.50;;;;;;5098164;28;20185;-52
2023/02/20 03:45:28;;;;;;;3.08;2.20;;;15.50;55.50;;;;;;5094677;28;20215;-53
2023/02/20 03:47:55;;;;;;;3.92;2.97;;;15.50;55.50;;;;;;5110625;28;20169;-54
2023/02/20 03:50:21;;;;;;;3.25;2.95;;;15.50;55.40;;;;;;5094137;28;20615;-54
2023/02/20 03:52:47;;;;;;;3.40;3.05;;;15.50;55.50;;;;;;5094609;28;20327;-52
2023/02/20 03:55:12;;;;;;;4.22;3.08;;;15.50;55.50;;;;;;5094705;28;20223;-53
2023/02/20 03:57:43;;;;;;;3.35;3.05;;;15.50;55.50;;;;;;5109368;28;20177;-54
2023/02/20 04:00:12;;;;;;;3.83;3.17;;;15.50;55.40;;;;;;5110459;28;20273;-55
2023/02/20 04:02:42;;;;;;;3.65;3.30;;;15.50;55.50;;;;;;5109297;28;20580;-55
2023/02/20 04:05:29;;;;;;;6.88;3.30;;;15.60;55.70;;;;;;5110353;28;20201;-55
2023/02/20 04:08:14;;;;;;;3.05;2.83;;;15.50;55.60;;;;;;5093098;28;20181;-54
2023/02/20 04:10:50;;;;;;;3.22;2.85;;;15.50;55.60;;;;;;5093406;28;20659;-55
2023/02/20 04:13:15;;;;;;;4.03;3.00;;;15.50;55.60;;;;;;5094604;28;20170;-54
2023/02/20 04:15:41;;;;;;;3.47;3.17;;;15.50;55.60;;;;;;5094169;28;20170;-54
2023/02/20 04:18:08;;;;;;;4.18;3.10;;;15.50;55.50;;;;;;5109311;28;20361;-55
2023/02/20 04:20:34;;;;;;;5.18;3.60;;;15.50;55.50;;;;;;5109637;28;20182;-55
2023/02/20 04:23:04;;;;;;;4.85;3.22;;;15.50;55.50;;;;;;5094434;28;20510;-55
2023/02/20 04:25:41;;;;;;;3.75;3.17;;;15.50;55.50;;;;;;5109268;28;20563;-54
2023/02/20 04:28:07;;;;;;;4.32;3.70;;;15.50;55.50;;;;;;5108833;28;20170;-54
2023/02/20 04:30:32;;;;;;;4.55;3.30;;;15.50;55.50;;;;;;5109139;28;20181;-54
2023/02/20 04:33:04;;;;;;;3.65;2.97;;;15.50;55.50;;;;;;5093635;28;20530;-54
2023/02/20 04:35:29;;;;;;;3.83;3.53;;;15.50;55.60;;;;;;5093788;28;20616;-54
2023/02/20 04:37:55;;;;;;;4.30;3.90;;;15.40;55.50;;;;;;5092659;28;20174;-55
2023/02/20 04:40:22;;;;;;;4.00;3.30;;;15.40;55.40;;;;;;5093893;28;20253;-54
2023/02/20 04:42:47;;;;;;;5.78;4.20;;;15.40;55.50;;;;;;5093437;28;20252;-55
2023/02/20 04:45:13;;;;;;;7.10;4.88;;;15.40;55.40;;;;;;5093067;28;20339;-54
2023/02/20 04:47:39;;;;;;;4.18;3.75;;;15.40;55.40;;;;;;5093320;28;20624;-55
2023/02/20 04:50:04;;;;;;;5.10;3.72;;;15.40;55.50;;;;;;5093719;28;20185;-53
2023/02/20 04:52:33;;;;;;;4.22;3.83;;;15.40;55.50;;;;;;5092891;28;20248;-54
2023/02/20 04:54:58;;;;;;;3.80;3.42;;;15.40;55.50;;;;;;5093004;28;20586;-53
2023/02/20 04:57:24;;;;;;;5.18;4.68;;;15.40;55.60;;;;;;5093200;28;20256;-54
2023/02/20 04:59:49;;;;;;;5.30;4.00;;;15.40;55.40;;;;;;5092425;28;20169;-55
2023/02/20 05:02:16;;;;;;;4.63;3.60;;;15.40;55.60;;;;;;5093264;28;20632;-55
2023/02/20 05:04:41;;;;;;;4.57;3.75;;;15.40;55.60;;;;;;5093235;28;20256;-54
2023/02/20 05:07:07;;;;;;;4.60;4.10;;;15.40;55.50;;;;;;5092777;28;20261;-56
2023/02/20 05:09:32;;;;;;;5.68;4.07;;;15.40;55.70;;;;;;5093262;28;20252;-52
2023/02/20 05:11:58;;;;;;;5.05;4.53;;;15.40;55.50;;;;;;5093266;28;20585;-50
2023/02/20 05:14:23;;;;;;;4.18;3.78;;;15.40;55.60;;;;;;5092357;28;20675;-54
2023/02/20 05:16:50;;;;;;;4.68;4.22;;;15.40;55.60;;;;;;5092481;28;20235;-52
2023/02/20 05:19:17;;;;;;;5.93;4.75;;;15.40;55.60;;;;;;5093014;28;20617;-51
2023/02/20 05:24:27;;;;;;;5.35;4.30;;;15.30;55.50;;;;;;5093143;28;20176;-50
2023/02/20 05:26:56;;;;;;;5.43;4.53;;;15.40;55.60;;;;;;5091976;28;20300;-51
2023/02/20 05:29:22;;;;;;;3.88;3.58;;;15.40;55.60;;;;;;5092800;28;20174;-50
2023/02/20 05:31:47;;;;;;;5.78;4.80;;;15.30;55.60;;;;;;5092886;28;20177;-51
2023/02/20 05:34:13;;;;;;;5.40;4.90;;;15.30;55.60;;;;;;5092357;28;20522;-51
2023/02/20 05:36:38;;;;;;;6.38;3.88;;;15.30;55.50;;;;;;5092751;28;20173;-55
2023/02/20 05:39:04;;;;;;;8.57;4.63;;;15.30;55.60;;;;;;5092785;28;20623;-55
2023/02/20 05:41:30;;;;;;;5.15;4.57;;;15.30;55.60;;;;;;5092075;28;20189;-54
2023/02/20 05:43:56;;;;;;;6.38;4.80;;;15.30;55.60;;;;;;5092355;28;20627;-54
2023/02/20 05:46:23;;;;;;;5.70;4.15;;;15.30;55.60;;;;;;5092731;28;20624;-54
2023/02/20 05:48:49;;;;;;;4.70;4.32;;;15.30;55.60;;;;;;5091586;28;20628;-55
2023/02/20 05:51:25;;;;;;;5.65;4.47;;;15.30;55.60;;;;;;5092814;28;20197;-54
2023/02/20 05:53:51;;;;;;;6.72;4.43;;;15.30;55.60;;;;;;5092333;28;20178;-54
2023/02/20 05:56:17;;;;;;;5.05;4.53;;;15.30;55.60;;;;;;5091941;28;20180;-54
2023/02/20 05:58:45;;;;;;;5.82;4.43;;;15.30;55.60;;;;;;5092131;28;20176;-55
2023/02/20 06:01:22;;;;;;;7.00;4.13;;;15.30;55.60;;;;;;5092618;28;20205;-55
2023/02/20 06:03:47;;;;;;;6.57;4.95;;;15.40;55.60;;;;;;5091570;28;20310;-55
2023/02/20 06:06:13;;;;;;;4.45;4.05;;;15.40;55.50;;;;;;5092548;28;20607;-55
2023/02/20 06:08:39;;;;;;;5.65;4.45;;;15.40;55.40;;;;;;5096438;28;20173;-54
2023/02/20 06:11:05;;;;;;;4.85;4.13;;;15.50;55.40;;;;;;5095792;28;20182;-54
2023/02/20 06:13:30;;;;;;;4.90;4.07;;;15.50;55.40;;;;;;5096425;28;20226;-56
2023/02/20 06:15:56;;;;;;;4.40;3.97;;;15.60;55.30;;;;;;5096383;28;20173;-55
2023/02/20 06:18:21;;;;;;;5.65;3.88;;;15.70;55.20;;;;;;5095693;28;20268;-55
2023/02/20 06:20:47;;;;;;;4.68;4.00;;;15.80;55.10;;;;;;5096305;28;20170;-52
2023/02/20 06:23:12;;;;;;;4.85;3.72;;;15.80;55.00;;;;;;5095636;28;20165;-52
2023/02/20 06:25:38;;;;;;;4.88;4.00;;;15.90;54.90;;;;;;5095867;28;20198;-50
2023/02/20 06:28:03;;;;;;;5.00;3.83;;;16.00;54.90;;;;;;5096499;28;20576;-54
2023/02/20 06:30:29;;;;;;;4.10;3.70;;;16.00;54.70;;;;;;5095992;28;20538;-50
2023/02/20 06:32:55;;;;;;;5.03;3.65;;;16.10;54.70;;;;;;5096256;28;20188;-53
2023/02/20 06:35:20;;;;;;;5.55;3.92;;;16.10;54.60;;;;;;5096443;28;20177;-53
2023/02/20 06:37:46;;;;;;;4.57;3.50;;;16.10;54.60;;;;;;5095253;28;20183;-54
2023/02/20 06:40:11;;;;;;;4.88;3.67;;;16.10;54.60;;;;;;5096055;28;20612;-54
2023/02/20 06:42:37;;;;;;;3.70;3.38;;;16.00;54.60;;;;;;5095977;28;20173;-54
2023/02/20 06:45:02;;;;;;;4.25;3.47;;;16.00;54.70;;;;;;5095472;28;20668;-55
2023/02/20 06:47:28;;;;;;;5.45;3.75;;;16.00;54.70;;;;;;5096172;28;20184;-54
2023/02/20 06:49:53;;;;;;;5.38;3.80;;;16.00;54.80;;;;;;5095826;28;20173;-51
2023/02/20 06:52:19;;;;;;;4.18;3.20;;;16.00;54.70;;;;;;5095268;28;20208;-53
2023/02/20 06:54:44;;;;;;;5.97;3.30;;;16.10;54.70;;;;;;5095638;28;20189;-51
2023/02/20 06:57:10;;;;;;;3.85;3.30;;;16.10;54.60;;;;;;5096119;28;20169;-54
2023/02/20 06:59:40;;;;;;;4.53;3.53;;;16.10;54.60;;;;;;5095028;28;20525;-53
2023/02/20 07:02:07;;;;;;;5.50;3.70;;;16.10;54.60;;;;;;5095950;28;20174;-55
2023/02/20 07:04:33;;;;;;;3.72;3.35;;;16.10;54.60;;;;;;5111323;28;20541;-55
2023/02/20 07:06:59;;;;;;;3.88;3.47;;;16.20;54.70;;;;;;5094808;28;20224;-53
2023/02/20 07:09:24;;;;;;;3.72;3.25;;;16.30;54.60;;;;;;5095624;28;20174;-54
2023/02/20 07:11:51;;;;;;;3.75;2.97;;;16.40;54.50;;;;;;5095520;28;20633;-51
2023/02/20 07:14:17;;;;;;;4.25;2.58;;;16.50;54.30;;;;;;5110711;28;20180;-54
2023/02/20 07:16:42;;;;;;;4.72;3.53;;;16.60;54.10;;;;;;5094895;28;20308;-55
2023/02/20 07:19:08;;;;;;;5.25;3.65;;;16.70;54.00;;;;;;5095156;28;20181;-55
2023/02/20 07:21:33;;;;;;;4.45;3.53;;;16.70;53.90;;;;;;5094548;28;20180;-53
2023/02/20 07:24:02;;;;;;;5.38;3.05;;;16.70;53.90;;;;;;5095246;28;20185;-54
2023/02/20 07:26:28;;;;;;;3.15;2.85;;;16.80;53.90;;;;;;5094570;28;20217;-53
2023/02/20 07:28:54;;;;;;;3.85;2.88;;;16.90;53.80;;;;;;5095168;28;20307;-54
2023/02/20 07:31:19;;;;;;;3.92;2.92;;;17.10;53.60;;;;;;5095932;28;20181;-53
2023/02/20 07:33:45;;;;;;;4.60;3.10;;;17.10;53.40;;;;;;5094428;28;20170;-52
2023/02/20 07:36:11;;;;;;;4.72;2.80;;;17.20;53.20;;;;;;5095121;28;20174;-56
2023/02/20 07:38:37;;;;;;;4.50;3.05;;;17.30;53.00;;;;;;5110412;28;20174;-55
2023/02/20 07:41:03;;;;;;;4.18;2.63;;;17.40;52.80;;;;;;5094321;28;20260;-52
2023/02/20 07:43:28;;;;;;;4.05;3.00;;;17.50;52.80;;;;;;5095029;28;20212;-53
2023/02/20 07:45:54;;;;;;;3.88;2.90;;;17.40;52.80;;;;;;5094704;28;20248;-52
2023/02/20 07:48:19;;;;;;;2.92;2.35;;;17.50;52.80;;;;;;5094061;28;20273;-51
2023/02/20 07:50:45;;;;;;;2.88;2.63;;;17.60;52.80;;;;;;5094480;28;20189;-64
2023/02/20 07:53:14;;;;;;;3.75;2.90;;;17.50;52.70;;;;;;5094546;28;20177;-65
2023/02/20 07:55:39;;;;;;;6.63;3.60;;;17.60;53.10;;;;;;5093900;28;20207;-65
2023/02/20 07:58:05;;;;;;;4.32;2.65;;;17.60;53.60;;;;;;5094611;28;20573;-67
2023/02/20 08:00:31;;;;;;;4.90;2.85;;;17.60;53.70;;;;;;5094659;28;20173;-63
2023/02/20 08:02:58;;;;;;;5.63;2.92;;;17.60;54.00;;;;;;5093630;28;20616;-63
2023/02/20 08:05:23;;;;;;;5.43;3.33;;;17.70;53.90;;;;;;5094175;28;20205;-64
2023/02/20 08:07:49;;;;;;;3.80;2.85;;;17.70;53.80;;;;;;5094227;28;20205;-64
2023/02/20 08:10:16;;;;;;;3.35;2.88;;;17.70;53.80;;;;;;5093681;28;20196;-64
2023/02/20 08:12:42;;;;;;;4.30;3.08;;;17.80;53.70;;;;;;5094157;28;20201;-62
2023/02/20 08:15:10;;;;;;;5.75;3.28;;;17.80;53.80;;;;;;5094503;28;20608;-64
2023/02/20 08:17:37;;;;;;;5.38;3.03;;;17.80;53.70;;;;;;5093119;28;20305;-63
2023/02/20 08:20:03;;;;;;;6.50;3.00;;;17.80;53.70;;;;;;5094340;28;20176;-64
2023/02/20 08:22:28;;;;;;;3.13;2.83;;;17.80;53.70;;;;;;5094493;28;20189;-63
2023/02/20 08:24:54;;;;;;;5.50;3.15;;;17.80;53.70;;;;;;5093354;28;20170;-64
2023/02/20 08:27:19;;;;;;;3.83;3.42;;;17.90;53.70;;;;;;5094102;28;20190;-65
2023/02/20 08:29:45;;;;;;;3.88;3.28;;;17.80;53.70;;;;;;5092200;28;20218;-65
2023/02/20 08:32:11;;;;;;;4.72;3.10;;;17.70;53.90;;;;;;5093970;28;20177;-65
2023/02/20 08:34:36;;;;;;;4.93;3.00;;;17.60;54.00;;;;;;5093471;28;20291;-66
2023/02/20 08:37:02;;;;;;;7.10;2.92;;;17.50;54.20;;;;;;5093116;28;20285;-65
2023/02/20 08:39:27;;;;;;;4.15;3.28;;;17.50;54.50;;;;;;5094034;28;20261;-65
2023/02/20 08:41:53;;;;;;;3.97;3.08;;;17.40;54.40;;;;;;5093744;28;20296;-64
2023/02/20 08:44:18;;;;;;;3.85;2.78;;;17.40;54.60;;;;;;5093226;28;20268;-64
2023/02/20 08:46:45;;;;;;;4.75;3.30;;;17.30;54.70;;;;;;5093586;28;20290;-64
2023/02/20 08:49:11;;;;;;;5.13;3.00;;;17.30;54.70;;;;;;5093733;28;20180;-64
2023/02/20 08:51:36;;;;;;;4.60;3.30;;;17.40;54.80;;;;;;5092596;28;20253;-64
2023/02/20 08:54:03;;;;;;;4.55;2.90;;;17.40;54.70;;;;;;5093528;28;20166;-64
2023/02/20 08:56:28;;;;;;;6.95;3.45;;;17.40;54.70;;;;;;5093778;28;20186;-65
2023/02/20 08:58:54;;;;;;;4.45;3.35;;;17.40;54.70;;;;;;5092625;28;20177;-65
2023/02/20 09:01:19;;;;;;;4.70;3.45;;;17.40;54.60;;;;;;5093578;28;20174;-65
2023/02/20 09:03:45;;;;;;;3.83;3.20;;;17.40;54.60;;;;;;5092944;28;20521;-65
2023/02/20 09:06:10;;;;;;;9.05;3.40;;;17.40;54.60;;;;;;5092528;28;20220;-64
2023/02/20 09:08:36;;;;;;;4.20;3.00;;;17.50;54.50;;;;;;5093271;28;20173;-65
2023/02/20 09:11:01;;;;;;;5.07;2.90;;;17.50;54.50;;;;;;5093448;28;20182;-64
2023/02/20 09:13:27;;;;;;;4.85;3.33;;;17.40;55.10;;;;;;5092640;28;20631;-65
2023/02/20 09:15:53;;;;;;;5.80;3.30;;;17.40;54.60;;;;;;5092840;28;20170;-65
2023/02/20 09:18:18;;;;;;;5.20;3.72;;;17.40;54.60;;;;;;5093142;28;20308;-65
2023/02/20 09:20:44;;;;;;;3.97;2.97;;;17.20;54.60;;;;;;5092037;28;20201;-65
2023/02/20 09:23:09;;;;;;;5.03;2.83;;;17.30;54.80;;;;;;5092968;28;20477;-65
2023/02/20 09:25:35;;;;;;;5.82;3.03;;;17.30;54.80;;;;;;5092998;28;20221;-65
2023/02/20 09:28:00;;;;;;;4.50;2.85;;;17.30;54.90;;;;;;5092512;28;20165;-66
2023/02/20 09:30:26;;;;;;;3.85;2.90;;;17.30;55.00;;;;;;5093153;28;20177;-65
2023/02/20 09:32:53;;;;;;;4.72;3.30;;;17.30;54.90;;;;;;5092727;28;20173;-65
2023/02/20 09:35:21;;;;;;;3.83;2.58;;;17.30;54.90;;;;;;5092135;28;20243;-66
2023/02/20 09:37:47;;;;;;;3.97;2.78;;;17.40;54.80;;;;;;5092498;28;20170;-66
2023/02/20 09:40:12;;;;;;;4.03;3.10;;;17.40;54.80;;;;;;5091967;28;20193;-65
2023/02/20 09:43:12;;;;;;;3.55;2.80;;;17.40;54.70;;;;;;5108113;28;20178;-64
2023/02/20 09:45:37;;;;;;;4.78;2.88;;;17.40;54.70;;;;;;5106365;28;20197;-64
2023/02/20 09:48:57;;;;;;;5.68;2.75;;;17.40;54.80;;;;;;5107912;28;20173;-64
2023/02/20 09:51:24;;;;;;;3.95;2.50;;;17.30;54.80;;;;;;5050577;28;20284;-63
2023/02/20 09:54:07;;;;;;;3.42;2.50;;;17.30;55.00;;;;;;5087059;28;20193;-66
2023/02/20 09:56:34;;;;;;;4.78;2.85;;;17.20;55.00;;;;;;5108280;28;20268;-65
2023/02/20 09:59:21;;;;;;;3.60;2.40;;;17.20;55.30;;;;;;5108382;28;20723;-66
2023/02/20 10:02:15;;;;;;;3.75;2.95;;;17.20;55.20;;;;;;5091630;28;20181;-66
2023/02/20 10:04:51;;;;;;;2.95;2.75;;;17.20;55.20;;;;;;5107371;28;20170;-65
2023/02/20 10:07:36;;;;;;;4.40;2.75;;;17.30;55.20;;;;;;5107976;28;20276;-64
2023/02/20 10:10:22;;;;;;;4.03;2.55;;;17.30;55.20;;;;;;5091658;28;20181;-65
2023/02/20 10:12:54;;;;;;;3.28;2.55;;;17.30;55.10;;;;;;5105985;28;20185;-64
2023/02/20 10:15:32;;;;;;;4.57;2.53;;;17.30;55.10;;;;;;5107398;28;20188;-63
2023/02/20 10:18:36;;;;;;;3.47;2.17;;;17.40;55.10;;;;;;5091785;28;20226;-64
2023/02/20 10:21:05;;;;;;;3.63;2.53;;;17.30;55.10;;;;;;5107749;28;20220;-64
2023/02/20 10:23:51;;;;;;;3.92;2.22;;;17.40;55.10;;;;;;5091309;28;20588;-64
2023/02/20 10:26:31;;;;;;;4.72;2.33;;;17.40;55.00;;;;;;5091866;28;20638;-64
2023/02/20 10:29:17;;;;;;;5.30;2.53;;;17.60;55.00;;;;;;5107780;28;20177;-65
2023/02/20 10:31:52;;;;;;;3.75;2.30;;;17.80;55.00;;;;;;5107947;28;20530;-66
2023/02/20 10:34:24;;;;;;;4.65;2.30;;;18.00;54.50;;;;;;5107917;28;20183;-65
2023/02/20 10:36:52;;;;;;;4.43;2.28;;;18.20;54.10;;;;;;5106722;28;20182;-64
2023/02/20 10:39:22;;;;;;;2.88;2.28;;;18.40;54.00;;;;;;5107650;28;20170;-64
2023/02/20 10:42:03;;;;;;;3.80;1.95;;;18.60;53.50;;;;;;5107363;28;20198;-64
2023/02/20 10:44:55;;;;;;;4.10;2.00;;;18.70;53.30;;;;;;5106735;28;20261;-63
2023/02/20 10:47:47;;;;;;;4.30;2.00;;;18.80;53.10;;;;;;5107002;28;20280;-62
2023/02/20 10:50:31;;;;;;;3.35;2.03;;;18.90;52.90;;;;;;5106513;28;20188;-62
2023/02/20 10:53:12;;;;;;;2.15;1.75;;;19.00;52.80;;;;;;5092928;28;20532;-63
2023/02/20 10:56:03;;;;;;;4.43;2.20;;;19.10;52.80;;;;;;5111284;28;20180;-64
2023/02/20 10:58:34;;;;;;;5.00;1.85;;;19.10;52.70;;;;;;5088965;28;20566;-64
2023/02/20 11:01:08;;;;;;;4.50;2.55;;;19.20;52.60;;;;;;5095721;28;20174;-64
2023/02/20 11:03:46;;;;;;;3.08;1.95;;;19.20;52.50;;;;;;5095335;28;20184;-63
2023/02/20 11:06:16;;;;;;;3.63;1.70;;;19.30;52.40;;;;;;5110571;28;20212;-63
2023/02/20 11:08:42;;;;;;;8.27;1.90;;;19.30;52.50;;;;;;5111107;28;20177;-63
2023/02/20 11:11:24;;;;;;;3.05;1.52;;;19.40;52.40;;;;;;5111172;28;20173;-63
2023/02/20 11:13:53;;;;;;;6.43;2.35;;;19.40;52.40;;;;;;5094574;28;20173;-65
2023/02/20 11:16:34;;;;;;;3.75;2.47;;;19.40;52.40;;;;;;5095017;28;20221;-65
2023/02/20 11:19:30;;;;;;;2.63;1.73;;;19.50;52.90;;;;;;5109976;28;20591;-64
2023/02/20 11:21:56;;;;;;;2.65;2.00;;;19.50;52.00;;;;;;5092290;28;20177;-65
2023/02/20 11:24:35;;;;;;;3.75;1.67;;;19.60;52.10;;;;;;5095049;28;20310;-64
2023/02/20 11:27:20;;;;;;;3.20;2.05;;;19.60;52.10;;;;;;5094380;28;20214;-64
2023/02/20 11:29:53;;;;;;;2.88;1.60;;;19.60;52.10;;;;;;5109631;28;20539;-65
2023/02/20 11:32:19;;;;;;;2.95;1.92;;;19.60;52.10;;;;;;5110017;28;20177;-65
2023/02/20 11:34:44;;;;;;;3.30;1.80;;;19.70;52.10;;;;;;5093888;28;20181;-65
2023/02/20 11:37:10;;;;;;;3.03;1.85;;;19.70;52.00;;;;;;5110674;28;20260;-64
2023/02/20 11:39:35;;;;;;;3.05;1.95;;;19.80;51.90;;;;;;5109625;28;20261;-64
2023/02/20 11:42:04;;;;;;;2.90;1.55;;;19.80;51.90;;;;;;5110711;28;20632;-65
2023/02/20 11:44:30;;;;;;;3.22;1.75;;;19.80;51.80;;;;;;5094404;28;20205;-64
2023/02/20 11:47:26;;;;;;;4.10;2.00;;;19.80;51.90;;;;;;5093319;28;20915;-63
2023/02/20 11:50:10;;;;;;;2.95;1.63;;;19.80;51.80;;;;;;5085675;28;20499;-64
2023/02/20 11:52:36;;;;;;;2.90;1.60;;;19.90;51.80;;;;;;5094216;28;20178;-63
2023/02/20 11:55:19;;;;;;;2.88;1.70;;;19.80;51.80;;;;;;5109996;28;20498;-63
2023/02/20 11:57:44;;;;;;;2.28;1.75;;;19.90;51.80;;;;;;5094459;28;20319;-64
2023/02/20 12:00:18;;;;;;;3.65;1.73;;;19.90;51.90;;;;;;5110355;28;20257;-65
2023/02/20 12:02:52;;;;;;;2.35;1.65;;;19.90;51.80;;;;;;5093512;28;20297;-65
2023/02/20 12:05:18;;;;;;;2.38;1.70;;;20.00;51.80;;;;;;5093347;28;20271;-65
2023/02/20 12:07:45;;;;;;;4.20;1.70;;;20.00;51.90;;;;;;5093564;28;20177;-63
2023/02/20 12:10:14;;;;;;;2.63;1.60;;;20.00;51.80;;;;;;5110037;28;20253;-64
2023/02/20 12:12:39;;;;;;;2.28;1.67;;;20.00;51.90;;;;;;5093816;28;20648;-64
2023/02/20 12:15:11;;;;;;;3.13;2.00;;;20.00;51.90;;;;;;5093424;28;20268;-63
2023/02/20 12:17:54;;;;;;;2.53;1.40;;;20.10;51.80;;;;;;5109114;28;20224;-64
2023/02/20 12:20:21;;;;;;;4.90;1.63;;;20.10;51.80;;;;;;5110030;28;20185;-64
2023/02/20 12:23:13;;;;;;;3.35;1.50;;;20.10;51.70;;;;;;5108637;28;20644;-64
2023/02/20 12:26:02;;;;;;;3.70;1.60;;;20.10;51.70;;;;;;5109519;28;20347;-64
2023/02/20 12:28:33;;;;;;;3.88;1.40;;;20.10;51.70;;;;;;5083443;28;20285;-64
2023/02/20 12:31:04;;;;;;;1.88;1.23;;;20.00;51.90;;;;;;5108910;28;20243;-65
2023/02/20 12:33:34;;;;;;;2.10;1.45;;;20.10;51.90;;;;;;5109466;28;20174;-66
2023/02/20 12:36:09;;;;;;;2.97;1.58;;;20.10;51.90;;;;;;5093046;28;20176;-67
2023/02/20 12:39:06;;;;;;;3.75;1.50;;;20.10;51.90;;;;;;5093517;28;20181;-67
2023/02/20 12:41:41;;;;;;;4.55;1.83;;;20.00;52.00;;;;;;5094045;28;20264;-67
2023/02/20 12:44:32;;;;;;;2.90;1.33;;;20.00;52.10;;;;;;5092956;28;20177;-66
2023/02/20 12:47:14;;;;;;;3.65;1.90;;;19.90;52.10;;;;;;5093149;28;20209;-64
2023/02/20 12:49:52;;;;;;;3.42;2.13;;;19.90;52.20;;;;;;5107402;28;20253;-63
2023/02/20 12:52:33;;;;;;;4.63;1.52;;;19.90;52.40;;;;;;5108371;28;20197;-63
2023/02/20 12:55:39;;;;;;;2.35;1.63;;;19.90;52.50;;;;;;5093251;28;20252;-65
2023/02/20 12:58:11;;;;;;;3.35;1.65;;;19.90;52.60;;;;;;5092391;28;20165;-66
2023/02/20 13:00:49;;;;;;;2.42;1.20;;;19.90;52.50;;;;;;5092802;28;20212;-65
2023/02/20 13:03:37;;;;;;;2.53;1.40;;;19.90;52.60;;;;;;5108524;28;20545;-65
2023/02/20 13:06:03;;;;;;;1.45;1.27;;;19.80;52.50;;;;;;5105784;28;20567;-65
2023/02/20 13:08:34;;;;;;;2.80;1.50;;;19.90;52.70;;;;;;5108878;28;20619;-63
2023/02/20 13:11:02;;;;;;;2.80;1.27;;;19.90;52.70;;;;;;5108607;28;20186;-63
2023/02/20 13:13:35;;;;;;;3.38;1.55;;;19.80;52.80;;;;;;5092880;28;20223;-63
2023/02/20 13:16:06;;;;;;;3.30;1.30;;;19.80;52.80;;;;;;5108031;28;20185;-64
2023/02/20 13:18:53;;;;;;;3.63;1.25;;;19.90;53.00;;;;;;5107833;28;20190;-68
2023/02/20 13:21:22;;;;;;;1.77;1.38;;;19.90;52.90;;;;;;5108626;28;20185;-64